createdAt,value
2023-03-13T00:01:46.112Z,99955.44
2023-03-13T00:04:12.489Z,99945.03
2023-03-13T00:06:39.822Z,99950.94
2023-03-13T00:09:08.663Z,99941.78
2023-03-13T00:11:35.472Z,99933.47
2023-03-13T00:14:04.109Z,99930.38
2023-03-13T00:16:31.117Z,99931.22
2023-03-13T00:18:58.524Z,99928.13
2023-03-13T00:21:28.121Z,99926.28
2023-03-13T00:23:55.514Z,99929.41
2023-03-13T00:26:24.209Z,99923.34
2023-03-13T00:28:51.515Z,99919.94
2023-03-13T00:31:22.344Z,99914.03
2023-03-13T00:33:52.071Z,99917.56
2023-03-13T00:36:26.052Z,99903.91
2023-03-13T00:38:53.737Z,99902.50
2023-03-13T00:41:22.457Z,99898.56
2023-03-13T00:43:49.439Z,99892.66
2023-03-13T00:46:18.125Z,99892.81
2023-03-13T00:48:44.706Z,99881.97
2023-03-13T00:51:11.813Z,99879.56
2023-03-13T00:53:38.191Z,99876.19
2023-03-13T00:56:07.831Z,99868.56
2023-03-13T00:58:36.685Z,99862.22
2023-03-13T01:01:34.156Z,99860.69
2023-03-13T01:04:29.271Z,99850.69
2023-03-13T01:06:58.419Z,99842.78
2023-03-13T01:09:24.820Z,99842.50
2023-03-13T01:11:51.122Z,99837.28
2023-03-13T01:14:20.295Z,99829.97
2023-03-13T01:16:47.312Z,99824.03
2023-03-13T01:19:16.205Z,99811.66
2023-03-13T01:21:44.416Z,99812.94
2023-03-13T01:24:11.182Z,99807.03
2023-03-13T01:26:37.596Z,99804.50
2023-03-13T01:29:04.155Z,99799.97
2023-03-13T01:31:34.996Z,99793.34
2023-03-13T01:34:04.361Z,99791.50
2023-03-13T01:36:30.764Z,99785.84
2023-03-13T01:38:59.715Z,99780.84
2023-03-13T01:41:28.943Z,99785.47
2023-03-13T01:43:55.898Z,99776.72
2023-03-13T01:46:30.170Z,99776.28
2023-03-13T01:49:07.683Z,99772.53
2023-03-13T01:51:45.545Z,99754.28
2023-03-13T01:54:16.897Z,99757.78
2023-03-13T01:56:50.859Z,99756.38
2023-03-13T01:59:22.803Z,99756.41
2023-03-13T02:01:52.612Z,99751.25
2023-03-13T02:04:21.968Z,99748.03
2023-03-13T02:06:52.516Z,99747.19
2023-03-13T02:09:24.381Z,99739.44
2023-03-13T02:12:00.986Z,99727.63
2023-03-13T02:14:30.710Z,99723.09
2023-03-13T02:16:57.149Z,99720.72
2023-03-13T02:19:39.505Z,99717.44
2023-03-13T02:22:27.918Z,99715.66
2023-03-13T02:25:09.953Z,99709.47
2023-03-13T02:27:36.737Z,99704.66
2023-03-13T02:30:05.150Z,99705.09
2023-03-13T02:32:32.157Z,99698.19
2023-03-13T02:35:05.346Z,99692.03
2023-03-13T02:37:33.218Z,99691.06
2023-03-13T02:40:05.172Z,99689.53
2023-03-13T02:42:31.824Z,99679.97
2023-03-13T02:44:58.266Z,99680.34
2023-03-13T02:47:25.516Z,99672.78
2023-03-13T02:49:51.903Z,99664.75
2023-03-13T02:52:24.487Z,99654.31
2023-03-13T02:54:55.000Z,99646.41
2023-03-13T02:57:21.708Z,99641.03
2023-03-13T02:59:48.085Z,99635.94
2023-03-13T03:02:14.444Z,99618.59
2023-03-13T03:04:41.347Z,99622.66
2023-03-13T03:07:07.741Z,99622.72
2023-03-13T03:09:34.114Z,99613.38
2023-03-13T03:12:00.477Z,99619.66
2023-03-13T03:14:26.983Z,99610.50
2023-03-13T03:16:53.389Z,99618.38
2023-03-13T03:19:19.793Z,99614.63
2023-03-13T03:21:46.397Z,99616.03
2023-03-13T03:24:12.816Z,99616.41
2023-03-13T03:26:39.198Z,99611.97
2023-03-13T03:29:05.618Z,99617.56
2023-03-13T03:31:31.967Z,99621.25
2023-03-13T03:33:58.378Z,99622.47
2023-03-13T03:36:25.127Z,99618.91
2023-03-13T03:38:52.066Z,99612.50
2023-03-13T03:41:19.266Z,99612.41
2023-03-13T03:43:47.297Z,99614.00
2023-03-13T03:46:14.833Z,99622.19
2023-03-13T03:48:41.249Z,99618.41
2023-03-13T03:51:07.715Z,99608.75
2023-03-13T03:53:34.148Z,99598.38
2023-03-13T03:56:01.560Z,99604.88
2023-03-13T03:58:27.912Z,99599.53
2023-03-13T04:00:57.027Z,99589.97
2023-03-13T04:03:24.361Z,99587.44
2023-03-13T04:05:50.793Z,99578.34
2023-03-13T04:08:17.186Z,99594.09
2023-03-13T04:10:43.613Z,99587.22
2023-03-13T04:13:09.946Z,99588.69
2023-03-13T04:15:39.241Z,99583.06
2023-03-13T04:18:06.003Z,99587.25
2023-03-13T04:20:32.869Z,99583.56
2023-03-13T04:22:59.224Z,99579.31
2023-03-13T04:25:25.922Z,99576.00
2023-03-13T04:27:52.306Z,99573.81
2023-03-13T04:30:18.882Z,99566.16
2023-03-13T04:32:45.334Z,99562.31
2023-03-13T04:35:11.820Z,99566.75
2023-03-13T04:37:38.180Z,99571.78
2023-03-13T04:40:05.194Z,99568.81
2023-03-13T04:42:31.524Z,99563.28
2023-03-13T04:44:57.809Z,99562.44
2023-03-13T04:47:24.223Z,99540.47
2023-03-13T04:49:50.581Z,99533.91
2023-03-13T04:52:17.021Z,99535.53
2023-03-13T04:54:43.434Z,99548.75
2023-03-13T04:57:09.782Z,99542.03
2023-03-13T04:59:37.263Z,99549.84
2023-03-13T05:02:03.749Z,99551.22
2023-03-13T05:04:30.123Z,99542.19
2023-03-13T05:06:56.525Z,99536.53
2023-03-13T05:09:22.858Z,99532.78
2023-03-13T05:11:50.645Z,99532.63
2023-03-13T05:14:17.110Z,99521.38
2023-03-13T05:16:43.425Z,99516.72
2023-03-13T05:19:11.725Z,99508.00
2023-03-13T05:21:38.096Z,99501.94
2023-03-13T05:24:04.742Z,99499.38
2023-03-13T05:26:31.053Z,99492.34
2023-03-13T05:28:57.357Z,99484.16
2023-03-13T05:31:23.832Z,99479.34
2023-03-13T05:33:50.254Z,99479.13
2023-03-13T05:36:16.702Z,99466.69
2023-03-13T05:38:43.039Z,99473.97
2023-03-13T05:41:09.409Z,99482.53
2023-03-13T05:43:35.763Z,99498.06
2023-03-13T05:46:02.149Z,99496.91
2023-03-13T05:48:28.502Z,99498.59
2023-03-13T05:50:54.794Z,99501.72
2023-03-13T05:53:21.221Z,99504.13
2023-03-13T05:55:47.548Z,99499.06
2023-03-13T05:58:13.931Z,99509.22
2023-03-13T06:00:40.274Z,99499.72
2023-03-13T06:03:06.615Z,99503.34
2023-03-13T06:05:32.972Z,99495.44
2023-03-13T06:07:59.319Z,99511.34
2023-03-13T06:10:25.671Z,99500.28
2023-03-13T06:12:53.784Z,99487.41
2023-03-13T06:15:20.272Z,99479.88
2023-03-13T06:17:46.624Z,99491.44
2023-03-13T06:20:13.153Z,99488.44
2023-03-13T06:22:40.194Z,99488.59
2023-03-13T06:25:07.147Z,99487.28
2023-03-13T06:27:33.431Z,99478.41
2023-03-13T06:29:59.753Z,99484.28
2023-03-13T06:32:26.190Z,99496.22
2023-03-13T06:34:52.573Z,99492.50
2023-03-13T06:37:18.952Z,99479.25
2023-03-13T06:39:45.361Z,99488.16
2023-03-13T06:42:11.766Z,99489.50
2023-03-13T06:44:38.133Z,99486.66
2023-03-13T06:47:04.695Z,99498.38
2023-03-13T06:49:31.149Z,99482.97
2023-03-13T06:51:58.789Z,99478.09
2023-03-13T06:54:25.243Z,99461.63
2023-03-13T06:56:51.622Z,99461.13
2023-03-13T06:59:17.965Z,99456.59
2023-03-13T07:01:44.382Z,99453.72
2023-03-13T07:04:12.946Z,99454.06
2023-03-13T07:06:39.613Z,99461.78
2023-03-13T07:09:06.054Z,99463.09
2023-03-13T07:11:32.433Z,99462.13
2023-03-13T07:14:15.291Z,99456.22
2023-03-13T07:16:43.226Z,99467.63
2023-03-13T07:19:09.879Z,99470.16
2023-03-13T07:21:36.519Z,99474.34
2023-03-13T07:24:03.179Z,99472.81
2023-03-13T07:26:29.937Z,99479.22
2023-03-13T07:28:56.569Z,99477.72
2023-03-13T07:31:26.249Z,99485.09
2023-03-13T07:33:56.319Z,99480.41
2023-03-13T07:36:23.252Z,99463.41
2023-03-13T07:38:50.854Z,99482.59
2023-03-13T07:41:18.406Z,99474.47
2023-03-13T07:43:45.550Z,99487.25
2023-03-13T07:46:14.686Z,99496.34
2023-03-13T07:48:42.919Z,99486.94
2023-03-13T07:51:30.294Z,99496.78
2023-03-13T07:54:03.543Z,99497.66
2023-03-13T07:56:29.883Z,99491.25
2023-03-13T07:58:56.312Z,99483.50
2023-03-13T08:01:28.432Z,99484.19
2023-03-13T08:03:59.635Z,99476.44
2023-03-13T08:06:32.580Z,99491.91
2023-03-13T08:09:00.150Z,99494.06
2023-03-13T08:11:28.444Z,99491.53
2023-03-13T08:13:55.971Z,99492.59
2023-03-13T08:16:25.507Z,99500.78
2023-03-13T08:18:54.432Z,99496.88
2023-03-13T08:21:26.623Z,99492.66
2023-03-13T08:23:55.224Z,99487.47
2023-03-13T08:26:23.641Z,99497.91
2023-03-13T08:28:53.879Z,99496.38
2023-03-13T08:31:23.098Z,99497.22
2023-03-13T08:33:49.794Z,99499.06
2023-03-13T08:36:17.826Z,99497.47
2023-03-13T08:38:46.247Z,99497.19
2023-03-13T08:41:14.872Z,99494.34
2023-03-13T08:43:41.515Z,99501.75
2023-03-13T08:46:08.053Z,99501.75
2023-03-13T08:48:34.437Z,99508.47
2023-03-13T08:51:07.134Z,99500.59
2023-03-13T08:53:34.699Z,99504.09
2023-03-13T08:56:01.268Z,99518.56
2023-03-13T08:58:28.449Z,99510.31
2023-03-13T09:00:54.828Z,99489.44
2023-03-13T09:03:21.238Z,99501.38
2023-03-13T09:05:56.006Z,99499.56
2023-03-13T09:08:23.049Z,99492.63
2023-03-13T09:10:57.633Z,99488.97
2023-03-13T09:13:25.745Z,99485.59
2023-03-13T09:16:03.806Z,99487.91
2023-03-13T09:18:30.622Z,99477.28
2023-03-13T09:20:57.006Z,99479.63
2023-03-13T09:23:24.302Z,99463.78
2023-03-13T09:25:57.362Z,99461.75
2023-03-13T09:28:25.708Z,99456.00
2023-03-13T09:30:53.680Z,99440.53
2023-03-13T09:33:23.762Z,99451.75
2023-03-13T09:35:50.986Z,99432.91
2023-03-13T09:38:19.475Z,99433.56
2023-03-13T09:40:59.861Z,99424.31
2023-03-13T09:43:52.599Z,99419.88
2023-03-13T09:46:39.718Z,99419.03
2023-03-13T09:49:35.647Z,99421.84
2023-03-13T09:52:19.104Z,99408.78
2023-03-13T09:54:53.753Z,99409.31
2023-03-13T09:57:28.533Z,99407.69
2023-03-13T10:00:02.179Z,99402.63
2023-03-13T10:02:32.251Z,99406.97
2023-03-13T10:05:17.729Z,99403.78
2023-03-13T10:07:44.152Z,99402.31
2023-03-13T10:10:21.333Z,99402.88
2023-03-13T10:12:51.301Z,99402.31
2023-03-13T10:15:30.562Z,99398.41
2023-03-13T10:17:58.898Z,99401.41
2023-03-13T10:20:33.454Z,99395.75
2023-03-13T10:23:04.955Z,99396.59
2023-03-13T10:25:38.235Z,99391.53
2023-03-13T10:28:06.284Z,99391.53
2023-03-13T10:30:35.443Z,99387.00
2023-03-13T10:33:07.814Z,99396.56
2023-03-13T10:35:40.745Z,99382.41
2023-03-13T10:38:12.951Z,99386.38
2023-03-13T10:40:40.250Z,99388.91
2023-03-13T10:43:14.992Z,99382.31
2023-03-13T10:45:41.643Z,99377.06
2023-03-13T10:48:18.410Z,99386.22
2023-03-13T10:50:47.479Z,99388.00
2023-03-13T10:53:26.581Z,99384.75
2023-03-13T10:56:08.912Z,99385.75
2023-03-13T10:58:55.992Z,99377.53
2023-03-13T11:01:29.101Z,99377.72
2023-03-13T11:03:57.205Z,99376.09
2023-03-13T11:06:28.231Z,99366.00
2023-03-13T11:09:05.478Z,99378.03
2023-03-13T11:11:44.002Z,99373.75
2023-03-13T11:14:21.050Z,99363.84
2023-03-13T11:16:53.206Z,99364.78
2023-03-13T11:19:25.502Z,99354.25
2023-03-13T11:22:11.725Z,99353.88
2023-03-13T11:24:45.984Z,99350.78
2023-03-13T11:27:50.938Z,99349.78
2023-03-13T11:30:45.099Z,99336.16
2023-03-13T11:33:32.296Z,99327.88
2023-03-13T11:36:09.210Z,99318.63
2023-03-13T11:38:39.722Z,99315.78
2023-03-13T11:41:27.800Z,99306.06
2023-03-13T11:44:10.449Z,99304.91
2023-03-13T11:46:58.650Z,99297.13
2023-03-13T11:49:51.816Z,99284.22
2023-03-13T11:52:35.509Z,99278.03
2023-03-13T11:55:21.038Z,99282.16
2023-03-13T11:58:16.566Z,99277.78
2023-03-13T12:00:52.176Z,99271.28
2023-03-13T12:03:34.677Z,99248.97
2023-03-13T12:06:03.450Z,99242.38
2023-03-13T12:08:43.581Z,99239.69
2023-03-13T12:11:27.635Z,99230.47
2023-03-13T12:14:09.703Z,99226.44
2023-03-13T12:16:48.076Z,99220.25
2023-03-13T12:19:29.634Z,99215.53
2023-03-13T12:22:02.260Z,99223.47
2023-03-13T12:24:44.183Z,99222.34
2023-03-13T12:27:17.689Z,99199.72
2023-03-13T12:30:07.307Z,99189.84
2023-03-13T12:32:38.544Z,99181.53
2023-03-13T12:35:19.663Z,99177.22
2023-03-13T12:38:00.281Z,99188.75
2023-03-13T12:40:41.267Z,99166.97
2023-03-13T12:43:17.756Z,99158.00
2023-03-13T12:46:13.310Z,99160.31
2023-03-13T12:48:48.688Z,99156.78
2023-03-13T12:51:22.080Z,99140.75
2023-03-13T12:53:59.367Z,99135.34
2023-03-13T12:56:49.432Z,99130.50
2023-03-13T12:59:21.824Z,99138.44
2023-03-13T13:01:53.411Z,99125.31
2023-03-13T13:04:23.512Z,99115.75
2023-03-13T13:07:05.781Z,99114.50
2023-03-13T13:10:09.766Z,99100.16
2023-03-13T13:12:40.562Z,99091.81
2023-03-13T13:15:27.772Z,99089.09
2023-03-13T13:18:01.430Z,99072.44
2023-03-13T13:21:09.692Z,99075.53
2023-03-13T13:23:39.139Z,99057.13
2023-03-13T13:26:47.611Z,99044.50
2023-03-13T13:29:13.994Z,99042.81
2023-03-13T13:31:50.773Z,99024.03
2023-03-13T13:34:29.954Z,99020.66
2023-03-13T13:36:58.007Z,99007.69
2023-03-13T13:39:39.458Z,98997.91
2023-03-13T13:42:30.706Z,98995.44
2023-03-13T13:45:02.837Z,98978.56
2023-03-13T13:47:33.614Z,98980.66
2023-03-13T13:50:00.867Z,98967.72
2023-03-13T13:52:40.699Z,98952.03
2023-03-13T13:55:21.955Z,98943.81
2023-03-13T13:57:49.669Z,98933.19
2023-03-13T14:00:24.816Z,98921.84
2023-03-13T14:02:53.680Z,98928.56
2023-03-13T14:05:30.280Z,98918.72
2023-03-13T14:08:03.186Z,98922.47
2023-03-13T14:10:37.811Z,98908.78
2023-03-13T14:13:16.746Z,98906.06
2023-03-13T14:15:45.815Z,98889.53
2023-03-13T14:18:20.984Z,98892.16
2023-03-13T14:20:59.870Z,98893.41
2023-03-13T14:23:43.916Z,98895.09
2023-03-13T14:26:26.575Z,98876.97
2023-03-13T14:28:56.063Z,98865.94
2023-03-13T14:31:29.872Z,98856.31
2023-03-13T14:34:01.616Z,98851.84
2023-03-13T14:36:28.580Z,98844.63
2023-03-13T14:39:00.050Z,98825.63
2023-03-13T14:41:37.691Z,98816.16
2023-03-13T14:44:15.063Z,98812.19
2023-03-13T14:46:43.437Z,98805.41
2023-03-13T14:49:20.969Z,98800.91
2023-03-13T14:51:58.836Z,98794.66
2023-03-13T14:54:29.098Z,98783.59
2023-03-13T14:57:10.374Z,98802.03
2023-03-13T14:59:36.790Z,98787.47
2023-03-13T15:02:43.170Z,98764.06
2023-03-13T15:05:32.581Z,98769.25
2023-03-13T15:07:58.990Z,98777.97
2023-03-13T15:10:32.221Z,98783.59
2023-03-13T15:12:59.050Z,98779.63
2023-03-13T15:15:25.657Z,98768.13
2023-03-13T15:17:52.029Z,98782.50
2023-03-13T15:20:18.551Z,98898.22
2023-03-13T15:22:46.376Z,98927.44
2023-03-13T15:25:23.426Z,98896.78
2023-03-13T15:27:50.769Z,98902.88
2023-03-13T15:30:19.030Z,98903.44
2023-03-13T15:32:46.833Z,98905.75
2023-03-13T15:35:27.510Z,98899.97
2023-03-13T15:37:55.013Z,98895.16
2023-03-13T15:40:21.565Z,98857.47
2023-03-13T15:42:47.920Z,98839.34
2023-03-13T15:45:14.279Z,98812.00
2023-03-13T15:47:40.682Z,98796.28
2023-03-13T15:50:12.892Z,98817.00
2023-03-13T15:52:39.394Z,98818.31
2023-03-13T15:55:07.938Z,98801.47
2023-03-13T15:57:44.076Z,98785.91
2023-03-13T16:00:25.132Z,98800.38
2023-03-13T16:02:51.544Z,98810.09
2023-03-13T16:05:18.239Z,98813.88
2023-03-13T16:07:44.733Z,98802.50
2023-03-13T16:10:18.310Z,98790.72
2023-03-13T16:12:44.767Z,98756.13
2023-03-13T16:15:11.432Z,98730.28
2023-03-13T16:17:37.845Z,98745.13
2023-03-13T16:20:11.616Z,98748.19
2023-03-13T16:22:38.014Z,98775.72
2023-03-13T16:25:04.804Z,98782.97
2023-03-13T16:27:31.129Z,98787.31
2023-03-13T16:29:57.524Z,98775.72
2023-03-13T16:32:25.496Z,98767.91
2023-03-13T16:34:51.995Z,98759.50
2023-03-13T16:37:20.498Z,98761.09
2023-03-13T16:39:48.087Z,98754.16
2023-03-13T16:42:14.502Z,98762.53
2023-03-13T16:44:40.910Z,98765.69
2023-03-13T16:47:27.932Z,98759.09
2023-03-13T16:49:54.837Z,98767.09
2023-03-13T16:52:21.243Z,98769.03
2023-03-13T16:54:47.719Z,98769.66
2023-03-13T16:57:18.572Z,98765.13
2023-03-13T16:59:44.973Z,98759.13
2023-03-13T17:02:16.418Z,98760.06
2023-03-13T17:04:44.859Z,98770.50
2023-03-13T17:07:23.497Z,98768.47
2023-03-13T17:09:51.220Z,98758.16
2023-03-13T17:12:18.843Z,98748.81
2023-03-13T17:14:45.609Z,98761.03
2023-03-13T17:17:17.703Z,98767.06
2023-03-13T17:19:44.979Z,98747.28
2023-03-13T17:22:17.611Z,98742.09
2023-03-13T17:24:44.153Z,98734.66
2023-03-13T17:27:14.973Z,98716.22
2023-03-13T17:29:42.342Z,98704.66
2023-03-13T17:32:13.665Z,98697.59
2023-03-13T17:34:41.260Z,98706.66
2023-03-13T17:37:15.846Z,98699.44
2023-03-13T17:39:43.640Z,98702.38
2023-03-13T17:42:09.984Z,98712.72
2023-03-13T17:44:38.179Z,98707.03
2023-03-13T17:47:11.421Z,98720.38
2023-03-13T17:49:37.871Z,98732.38
2023-03-13T17:52:04.515Z,98742.25
2023-03-13T17:54:30.876Z,98743.69
2023-03-13T17:56:57.261Z,98749.75
2023-03-13T17:59:23.652Z,98745.22
2023-03-13T18:01:50.091Z,98737.34
2023-03-13T18:04:16.487Z,98745.41
2023-03-13T18:06:45.551Z,98746.75
2023-03-13T18:09:17.321Z,98740.31
2023-03-13T18:11:44.052Z,98734.84
2023-03-13T18:14:11.120Z,98717.81
2023-03-13T18:16:52.138Z,98728.69
2023-03-13T18:19:22.721Z,98730.94
2023-03-13T18:21:51.809Z,98724.66
2023-03-13T18:24:18.349Z,98718.13
2023-03-13T18:26:46.862Z,98703.09
2023-03-13T18:29:19.210Z,98703.28
2023-03-13T18:31:45.672Z,98702.84
2023-03-13T18:34:12.308Z,98706.53
2023-03-13T18:36:39.059Z,98703.59
2023-03-13T18:39:06.160Z,98692.84
2023-03-13T18:41:33.454Z,98709.19
2023-03-13T18:44:03.272Z,98731.00
2023-03-13T18:46:33.323Z,98734.84
2023-03-13T18:49:00.973Z,98736.09
2023-03-13T18:51:28.276Z,98762.34
2023-03-13T18:53:55.607Z,98773.38
2023-03-13T18:56:25.005Z,98783.50
2023-03-13T18:58:53.450Z,98792.19
2023-03-13T19:01:22.568Z,98751.75
2023-03-13T19:03:49.337Z,98744.72
2023-03-13T19:06:20.372Z,98755.84
2023-03-13T19:08:48.003Z,98773.00
2023-03-13T19:11:15.894Z,98792.00
2023-03-13T19:13:42.592Z,98785.91
2023-03-13T19:16:13.892Z,98787.47
2023-03-13T19:18:40.306Z,98792.78
2023-03-13T19:21:30.569Z,98772.94
2023-03-13T19:23:57.590Z,98713.00
2023-03-13T19:26:37.323Z,98740.22
2023-03-13T19:29:04.737Z,98727.94
2023-03-13T19:31:31.109Z,98713.75
2023-03-13T19:33:57.462Z,98681.84
2023-03-13T19:36:24.746Z,98672.69
2023-03-13T19:38:51.278Z,98676.31
2023-03-13T19:41:17.654Z,98686.22
2023-03-13T19:43:45.349Z,98697.25
2023-03-13T19:46:25.798Z,98702.13
2023-03-13T19:49:02.227Z,98709.44
2023-03-13T19:51:30.258Z,98678.44
2023-03-13T19:53:57.282Z,98649.13
2023-03-13T19:56:27.760Z,98627.47
2023-03-13T19:59:02.652Z,98641.97
2023-03-13T20:01:29.998Z,98631.25
2023-03-13T20:03:56.692Z,98620.03
2023-03-13T20:06:25.648Z,98601.75
2023-03-13T20:08:57.402Z,98616.09
2023-03-13T20:11:24.516Z,98590.50
2023-03-13T20:13:51.343Z,98578.41
2023-03-13T20:16:18.064Z,98563.13
2023-03-13T20:18:47.319Z,98550.22
2023-03-13T20:21:16.130Z,98541.38
2023-03-13T20:23:43.469Z,98533.88
2023-03-13T20:26:12.136Z,98524.94
2023-03-13T20:28:40.470Z,98519.28
2023-03-13T20:31:07.863Z,98532.44
2023-03-13T20:33:35.224Z,98537.78
2023-03-13T20:36:08.153Z,98566.66
2023-03-13T20:38:34.900Z,98576.75
2023-03-13T20:41:02.113Z,98582.13
2023-03-13T20:43:29.210Z,98568.25
2023-03-13T20:45:55.852Z,98568.97
2023-03-13T20:48:22.860Z,98580.78
2023-03-13T20:50:54.100Z,98567.31
2023-03-13T20:53:21.082Z,98582.22
2023-03-13T20:55:48.318Z,98596.16
2023-03-13T20:58:15.829Z,98607.97
2023-03-13T21:00:42.986Z,98613.31
2023-03-13T21:03:09.768Z,98622.13
2023-03-13T21:05:39.931Z,98625.34
2023-03-13T21:08:07.098Z,98623.94
2023-03-13T21:10:38.178Z,98666.56
2023-03-13T21:13:05.382Z,98666.50
2023-03-13T21:15:32.358Z,98657.13
2023-03-13T21:17:58.843Z,98660.31
2023-03-13T21:20:26.140Z,98660.00
2023-03-13T21:22:52.647Z,98652.13
2023-03-13T21:25:19.312Z,98642.81
2023-03-13T21:27:45.728Z,98631.34
2023-03-13T21:30:17.979Z,98642.00
2023-03-13T21:32:45.432Z,98632.22
2023-03-13T21:35:12.771Z,98641.66
2023-03-13T21:37:39.786Z,98637.59
2023-03-13T21:40:08.801Z,98657.06
2023-03-13T21:42:36.068Z,98673.06
2023-03-13T21:45:03.953Z,98693.41
2023-03-13T21:47:31.557Z,98690.41
2023-03-13T21:50:00.411Z,98683.88
2023-03-13T21:52:26.940Z,98679.22
2023-03-13T21:54:53.385Z,98679.88
2023-03-13T21:57:19.701Z,98680.38
2023-03-13T21:59:46.078Z,98649.16
2023-03-13T22:02:13.437Z,98666.31
2023-03-13T22:04:40.035Z,98654.31
2023-03-13T22:07:06.786Z,98661.28
2023-03-13T22:09:33.426Z,98668.38
2023-03-13T22:11:59.822Z,98659.72
2023-03-13T22:14:27.880Z,98642.16
2023-03-13T22:16:54.669Z,98630.25
2023-03-13T22:19:21.146Z,98635.16
2023-03-13T22:21:47.509Z,98639.19
2023-03-13T22:24:13.866Z,98637.00
2023-03-13T22:26:40.178Z,98655.28
2023-03-13T22:29:06.541Z,98671.72
2023-03-13T22:31:32.937Z,98682.44
2023-03-13T22:33:59.322Z,98694.84
2023-03-13T22:36:25.747Z,98686.03
2023-03-13T22:38:52.151Z,98669.44
2023-03-13T22:41:18.719Z,98669.00
2023-03-13T22:43:45.101Z,98665.28
2023-03-13T22:46:12.124Z,98647.09
2023-03-13T22:48:39.084Z,98645.88
2023-03-13T22:51:11.581Z,98648.19
2023-03-13T22:53:39.970Z,98635.75
2023-03-13T22:56:09.769Z,98623.75
2023-03-13T22:58:37.118Z,98636.13
2023-03-13T23:01:12.641Z,98620.06
2023-03-13T23:03:39.587Z,98620.13
2023-03-13T23:06:08.291Z,98609.69
2023-03-13T23:08:35.629Z,98617.38
2023-03-13T23:11:03.417Z,98622.13
2023-03-13T23:13:30.653Z,98632.66
2023-03-13T23:15:57.606Z,98621.97
2023-03-13T23:18:26.367Z,98622.13
2023-03-13T23:20:53.118Z,98633.88
2023-03-13T23:23:19.710Z,98641.72
2023-03-13T23:25:46.161Z,98643.25
2023-03-13T23:28:12.607Z,98667.03
2023-03-13T23:30:39.039Z,98680.72
2023-03-13T23:33:05.695Z,98687.06
2023-03-13T23:35:32.161Z,98701.13
2023-03-13T23:37:58.550Z,98694.09
2023-03-13T23:40:25.128Z,98690.41
2023-03-13T23:42:51.672Z,98699.97
2023-03-13T23:45:18.947Z,98702.44
2023-03-13T23:47:45.745Z,98692.44
2023-03-13T23:50:14.448Z,98693.75
2023-03-13T23:52:41.398Z,98699.16
2023-03-13T23:55:08.464Z,98695.47
2023-03-13T23:57:37.520Z,98703.09
